Latest Weather Observations for Barimunya

IDW60801

Issued at 1:02 pm WST Friday 27 March 2015 (issued every 30 minutes, with the page automatically refreshed every 10 minutes)

About weather observations | Map of weather stations | Latest weather observations for WA | Other Formats
Station Details ID: 505053 Name: BARIMUNYA Lat: -22.67 Lon: 119.16 Height: 629.17 m
Data from the previous 72 hours. | See also: Recent months for locations in Western Australia
Date/Time
WST
Temp
°C
App
Temp
°C
Dew
Point
Rel
Hum
%
Delta-T
°C
Wind Press
QNH
hPa
Press
MSL
hPa
Rain
since 9 am
mm
Dir
 
Spd
km/h
Gust
km/h
Spd
kts
Gust
kts
27/01:00pm 27.9 24.4 11.0 35 9.9 SE 20 28 11 15 1018.5 1013.8 0.0
27/12:30pm 28.1 24.6 10.8 34 10.1 SE 20 28 11 15 1018.9 1014.2 0.0
27/12:00pm 28.0 24.7 11.5 35 9.7 SE 20 28 11 15 1019.4 1014.6 0.0
27/11:30am 27.0 23.6 11.1 37 9.3 SSE 20 26 11 14 1020.2 1015.5 0.0
27/11:00am 27.0 23.2 11.1 37 9.3 SSE 22 32 12 17 1020.6 1015.9 0.0
27/10:30am 25.8 21.5 11.9 42 8.2 SSE 26 33 14 18 1020.9 1016.1 0.0
27/10:00am 25.3 20.9 11.8 43 7.9 SSE 26 32 14 17 1020.9 1016.1 0.0
27/09:30am 24.9 20.2 10.7 40 8.2 SSE 26 35 14 19 1021.1 1016.3 0.0
27/09:00am 24.3 18.4 10.6 42 7.8 SSE 32 41 17 22 1021.2 1016.5 0.0
27/08:30am 24.1 20.5 11.8 46 7.2 SSE 22 30 12 16 1021.4 1016.7 0.0
27/08:00am 23.5 20.4 11.5 47 6.9 SSE 19 26 10 14 1021.2 1016.5 0.0
27/07:30am 22.2 20.0 12.2 53 5.8 S 15 20 8 11 1020.6 1015.9 0.0
27/07:00am 21.9 21.0 12.5 55 5.5 S 9 13 5 7 1020.5 1015.8 0.0
27/06:30am 21.4 19.9 12.0 55 5.4 SSE 11 15 6 8 1020.1 1015.4 0.0
27/06:00am 21.3 19.8 11.9 55 5.4 SSE 11 17 6 9 1020.2 1015.5 0.0
27/05:30am 21.5 19.8 12.4 56 5.3 SSE 13 17 7 9 1020.3 1015.6 0.0
27/05:00am 21.3 19.6 13.5 61 4.6 S 15 20 8 11 1020.2 1015.5 0.0
27/04:30am 21.3 19.2 13.7 62 4.5 S 17 22 9 12 1020.0 1015.3 0.0
27/04:00am 21.2 19.7 14.1 64 4.2 S 15 20 8 11 1019.9 1015.2 0.0
27/03:30am 21.5 19.4 13.7 61 4.6 SSE 17 22 9 12 1019.8 1015.1 0.0
27/03:00am 21.5 19.9 13.9 62 4.5 SSE 15 24 8 13 1019.8 1015.1 0.0
27/02:30am 21.3 19.8 14.2 64 4.3 S 15 19 8 10 1020.1 1015.4 0.0
27/02:00am 21.7 19.4 14.1 62 4.5 S 19 24 10 13 1020.3 1015.6 0.0
27/01:30am 22.0 19.5 14.1 61 4.7 S 20 28 11 15 1020.5 1015.8 0.0
27/01:00am 22.1 19.8 14.0 60 4.8 S 19 26 10 14 1020.9 1016.1 0.0
27/12:30am 22.3 19.9 14.4 61 4.8 S 20 26 11 14 1021.3 1016.6 0.0
27/12:00am 22.3 20.7 14.9 63 4.5 S 17 26 9 14 1021.2 1016.5 0.0
 
Date/Time
WST
Temp
°C
App
Temp
°C
Dew
Point
Rel
Hum
%
Delta-T
°C
Wind Press
QNH
hPa
Press
MSL
hPa
Rain
since 9 am
mm
Dir
 
Spd
km/h
Gust
km/h
Spd
kts
Gust
kts
26/11:30pm 22.5 19.5 14.9 62 4.6 S 24 30 13 16 1021.3 1016.6 0.0
26/11:00pm 23.0 20.0 14.8 60 5.0 S 24 32 13 17 1021.4 1016.7 0.0
26/10:30pm 23.6 21.5 15.1 59 5.2 S 20 28 11 15 1021.6 1016.9 0.0
26/10:00pm 23.8 20.9 15.0 57 5.4 S 24 32 13 17 1021.6 1016.9 0.0
26/09:30pm 24.2 22.1 14.6 55 5.9 S 19 30 10 16 1021.5 1016.8 0.0
26/09:00pm 24.5 21.7 14.3 53 6.2 S 22 30 12 16 1021.2 1016.5 0.0
26/08:30pm 24.9 21.5 13.8 50 6.7 SSW 24 35 13 19 1020.9 1016.1 0.0
26/08:00pm 25.1 20.2 13.6 49 6.9 SSW 32 46 17 25 1020.8 1016.0 0.0
26/07:30pm 26.3 21.6 14.4 48 7.3 SSW 32 41 17 22 1020.2 1015.5 0.0
26/07:09pm 27.8 26.0 14.4 43 8.2 SSW 17 44 9 24 1019.8 1015.1 0.0
26/07:00pm 28.6 28.2 14.1 41 8.9 SSW 9 11 5 6 1019.4 1014.6 0.0
26/06:30pm 29.2 28.2 13.4 38 9.6 S 11 13 6 7 1019.2 1014.4 0.0
26/06:00pm 29.6 27.9 12.5 35 10.3 S 13 19 7 10 1018.6 1013.9 0.0
26/05:30pm 30.4 27.8 11.9 32 11.1 SSE 17 20 9 11 1018.3 1013.6 0.0
26/05:00pm 30.8 28.9 11.7 31 11.4 S 13 20 7 11 1018.4 1013.7 0.0
26/04:30pm 30.8 28.5 11.7 31 11.4 SE 15 22 8 12 1018.3 1013.6 0.0
26/04:00pm 30.9 29.2 11.3 30 11.6 SE 11 19 6 10 1018.3 1013.6 0.0
26/03:30pm 30.3 28.0 11.8 32 11.1 ESE 15 20 8 11 1018.2 1013.5 0.0
26/03:00pm 30.2 27.6 10.7 30 11.4 SE 15 22 8 12 1018.3 1013.6 0.0
26/02:30pm 30.0 27.2 11.5 32 11.0 E 17 26 9 14 1018.5 1013.8 0.0
26/02:00pm 29.6 27.5 11.2 32 10.9 E 13 20 7 11 1018.7 1014.0 0.0
26/01:30pm 30.1 28.0 11.1 31 11.2 SE 13 22 7 12 1018.9 1014.2 0.0
26/01:00pm 29.2 26.8 11.3 33 10.6 SE 15 26 8 14 1019.3 1014.5 0.0
26/12:30pm 29.1 26.5 12.1 35 10.2 ESE 17 28 9 15 1019.6 1014.8 0.0
26/12:00pm 28.3 25.6 11.8 36 9.8 ESE 17 24 9 13 1020.0 1015.3 0.0
26/11:30am 27.0 23.4 10.7 36 9.4 SE 20 28 11 15 1020.5 1015.8 0.0
26/11:00am 26.4 22.0 10.5 37 9.1 ESE 24 33 13 18 1021.0 1016.2 0.0
26/10:30am 26.1 22.1 11.8 41 8.4 SE 24 35 13 19 1021.2 1016.5 0.0
26/10:00am 24.9 21.3 10.7 40 8.1 SE 20 32 11 17 1021.7 1017.0 0.0
26/09:30am 24.5 20.3 11.1 43 7.7 SE 24 33 13 18 1021.8 1017.1 0.0
26/09:00am 23.5 18.9 9.5 41 7.8 ESE 24 33 13 18 1021.8 1017.1 0.0
26/08:30am 23.1 18.2 9.8 43 7.5 SE 26 35 14 19 1021.8 1017.1 0.0
26/08:00am 22.9 19.4 10.3 45 7.1 SE 19 28 10 15 1022.0 1017.3 0.0
26/07:30am 22.5 18.9 10.6 47 6.7 SE 20 26 11 14 1021.4 1016.7 0.0
26/07:00am 22.3 18.9 10.5 47 6.6 SE 19 26 10 14 1021.0 1016.2 0.0
26/06:30am 22.2 19.0 11.3 50 6.2 SE 19 26 10 14 1020.8 1016.0 0.0
26/06:00am 22.3 19.5 11.4 50 6.2 SE 17 20 9 11 1020.5 1015.8 0.0
26/05:30am 22.5 19.8 11.6 50 6.3 SSE 17 22 9 12 1020.3 1015.6 0.0
26/05:00am 22.6 19.5 11.7 50 6.3 SE 19 26 10 14 1020.0 1015.3 0.0
26/04:30am 22.8 19.1 11.5 49 6.5 SE 22 32 12 17 1019.8 1015.1 0.0
26/04:00am 22.9 19.9 11.9 50 6.4 SE 19 24 10 13 1019.6 1014.8 0.0
26/03:30am 23.4 20.4 12.4 50 6.5 SE 20 28 11 15 1019.4 1014.6 0.0
26/03:00am 23.7 19.8 12.0 48 6.8 ESE 24 30 13 16 1019.2 1014.4 0.0
26/02:30am 24.2 20.3 12.2 47 7.0 SE 24 32 13 17 1019.1 1014.3 0.0
26/02:00am 24.2 20.9 12.8 49 6.7 SSE 22 32 12 17 1019.4 1014.6 0.0
26/01:30am 24.5 21.6 12.8 48 6.9 SE 20 28 11 15 1019.5 1014.7 0.0
26/01:00am 25.2 22.8 13.7 49 6.9 SE 19 24 10 13 1019.6 1014.8 0.0
26/12:30am 25.2 25.0 14.6 51 6.5 SSE 9 13 5 7 1019.7 1015.0 0.0
26/12:00am 25.5 24.7 14.0 49 7.0 SE 11 19 6 10 1019.5 1014.7 0.0
 
Date/Time
WST
Temp
°C
App
Temp
°C
Dew
Point
Rel
Hum
%
Delta-T
°C
Wind Press
QNH
hPa
Press
MSL
hPa
Rain
since 9 am
mm
Dir
 
Spd
km/h
Gust
km/h
Spd
kts
Gust
kts
25/11:30pm 25.6 25.4 14.7 51 6.7 SE 9 13 5 7 1019.6 1014.8 0.0
25/11:00pm 25.8 25.3 14.9 51 6.7 SSE 11 15 6 8 1019.4 1014.6 0.0
25/10:30pm 25.7 26.3 15.7 54 6.2 SSE 7 9 4 5 1019.2 1014.4 0.0
25/10:00pm 25.8 26.4 15.8 54 6.2 SE 7 11 4 6 1019.1 1014.3 0.0
25/09:30pm 25.6 27.5 16.7 58 5.6 SE 2 7 1 4 1019.2 1014.4 0.0
25/09:00pm 26.5 26.6 15.5 50 6.9 SE 9 13 5 7 1018.9 1014.2 0.0
25/08:30pm 26.6 26.9 15.9 51 6.7 SE 9 13 5 7 1018.9 1014.2 0.0
25/08:00pm 26.7 26.5 15.7 51 6.9 E 11 13 6 7 1018.6 1013.9 0.0
25/07:30pm 26.6 29.2 17.4 57 5.9 CALM 0 0 0 0 1018.7 1014.0 0.0
25/07:00pm 26.7 29.1 16.9 55 6.2 CALM 0 0 0 0 1018.4 1013.7 0.0
25/06:30pm 27.2 28.3 15.6 49 7.3 ESE 4 7 2 4 1017.9 1013.1 0.0
25/06:00pm 27.6 27.0 14.6 45 8.0 ESE 11 13 6 7 1017.6 1012.8 0.0
25/05:30pm 28.2 26.8 14.4 42 8.5 ESE 15 19 8 10 1017.4 1012.6 0.0
25/05:00pm 28.4 26.4 13.9 41 8.9 ESE 17 24 9 13 1017.4 1012.6 0.0
25/04:30pm 29.0 27.2 14.4 41 9.0 E 17 22 9 12 1017.2 1012.5 0.0
25/04:00pm 28.9 27.0 14.3 40 9.0 E 17 28 9 15 1017.2 1012.5 0.0
25/03:30pm 29.3 28.9 16.1 44 8.4 SE 13 19 7 10 1017.2 1012.5 0.0
25/03:00pm 28.8 28.2 15.7 45 8.3 ESE 13 20 7 11 1017.4 1012.6 0.0
25/02:30pm 28.4 27.8 15.7 46 8.0 ESE 13 22 7 12 1017.2 1012.5 0.0
25/02:00pm 28.0 27.3 16.3 49 7.4 ESE 15 20 8 11 1017.6 1012.8 0.0
25/01:30pm 27.3 26.5 16.0 50 7.1 SE 15 20 8 11 1018.0 1013.2 0.0
25/01:00pm 26.9 26.5 16.2 52 6.8 ESE 13 20 7 11 1018.1 1013.3 0.0
25/12:30pm 26.5 24.7 15.5 50 6.9 E 19 26 10 14 1018.5 1013.8 0.0
25/12:00pm 25.6 24.4 16.2 56 5.9 E 17 22 9 12 1018.9 1014.2 0.0
25/11:30am 25.4 24.3 16.3 57 5.7 E 17 24 9 13 1019.1 1014.3 0.0
25/11:00am 24.7 23.6 15.3 56 5.8 E 15 20 8 11 1019.4 1014.6 0.0
25/10:30am 23.9 23.0 14.9 57 5.5 ESE 13 20 7 11 1019.7 1015.0 0.0
25/10:00am 23.5 22.0 15.3 60 5.0 ESE 17 22 9 12 1020.0 1015.3 0.0
25/09:30am 22.7 21.7 14.5 60 5.0 ESE 13 20 7 11 1020.0 1015.3 0.0
25/09:00am 22.4 21.1 14.8 62 4.6 SE 15 20 8 11 1019.9 1015.2 14.4
25/08:30am 21.9 19.9 15.0 65 4.2 SE 19 26 10 14 1019.7 1015.0 14.4
25/08:00am 20.9 19.4 14.3 66 3.9 SE 15 20 8 11 1019.7 1015.0 14.4
25/07:30am 20.3 20.1 14.7 70 3.4 SE 9 13 5 7 1019.6 1014.8 14.4
25/07:00am 20.0 19.5 15.0 73 3.0 SE 11 17 6 9 1019.4 1014.6 14.4
25/06:30am 19.6 18.9 15.5 77 2.5 SE 13 15 7 8 1019.2 1014.4 14.4
25/06:00am 19.6 19.2 16.1 80 2.1 SE 13 19 7 10 1019.2 1014.4 14.4
25/05:30am 19.9 20.1 16.7 82 2.0 SSE 11 17 6 9 1019.3 1014.5 14.4
25/05:00am 20.2 19.9 16.4 79 2.3 SE 13 20 7 11 1018.9 1014.2 14.4
25/04:30am 20.4 18.8 16.0 76 2.7 ESE 19 24 10 13 1018.6 1013.9 14.4
25/04:00am 20.5 20.9 16.3 77 2.6 E 9 20 5 11 1018.8 1014.1 14.4
25/03:30am 19.9 21.1 18.2 90 1.1 ESE 9 15 5 8 1019.4 1014.6 14.4
25/03:00am 19.9 20.8 18.4 91 1.0 SSE 11 15 6 8 1019.8 1015.1 14.4
25/02:30am 19.8 20.1 17.9 89 1.2 S 13 17 7 9 1020.0 1015.3 14.4
25/02:00am 19.9 19.9 18.0 89 1.2 SE 15 19 8 10 1019.4 1014.6 14.4
25/01:30am 19.8 20.1 17.8 88 1.3 SE 13 17 7 9 1019.9 1015.2 14.4
25/01:00am 19.7 20.0 17.8 89 1.2 SE 13 19 7 10 1020.2 1015.5 14.2
25/12:30am 19.7 19.7 18.2 91 1.0 E 15 17 8 9 1020.1 1015.4 13.8
25/12:00am 20.3 21.3 18.6 90 1.1 WSW 11 17 6 9 1021.2 1016.5 12.4
 
Date/Time
WST
Temp
°C
App
Temp
°C
Dew
Point
Rel
Hum
%
Delta-T
°C
Wind Press
QNH
hPa
Press
MSL
hPa
Rain
since 9 am
mm
Dir
 
Spd
km/h
Gust
km/h
Spd
kts
Gust
kts
24/11:30pm 20.5 19.9 18.4 88 1.3 SE 19 26 10 14 1019.9 1015.2 11.2
24/11:00pm 20.5 18.9 18.3 87 1.4 SSE 24 30 13 16 1018.5 1013.8 10.6
24/10:30pm 21.3 20.4 18.1 82 2.0 ESE 20 26 11 14 1018.6 1013.9 10.4
24/10:02pm 20.7 20.6 19.5 93 0.8 E 19 24 10 13 1019.6 1014.8 9.0
24/10:00pm 20.6 20.8 19.3 92 0.8 E 17 22 9 12 1019.7 1015.0 8.8
24/09:30pm 20.4 19.9 19.1 92 0.8 WNW 20 32 11 17 1021.1 1016.3 4.8
24/09:21pm 20.9 19.6 19.0 89 1.2 WNW 24 39 13 21 1021.2 1016.5 2.8
24/09:00pm 21.7 20.3 18.7 83 1.9 SSW 24 37 13 20 1020.2 1015.5 0.6
24/08:37pm 24.2 23.5 18.2 69 3.9 SSW 19 54 10 29 1019.1 1014.3 0.2
24/08:30pm 26.0 27.5 18.9 65 4.7 S 9 11 5 6 1018.2 1013.5 0.2
24/08:00pm 27.7 28.5 16.3 49 7.2 SSE 7 9 4 5 1017.4 1012.6 0.0
24/07:30pm 27.8 28.2 16.4 50 7.2 SE 9 13 5 7 1016.5 1011.7 0.0
24/07:00pm 28.2 28.4 15.8 47 7.8 SE 9 11 5 6 1016.2 1011.4 0.0
24/06:30pm 28.3 28.7 15.2 44 8.2 SE 7 11 4 6 1016.1 1011.3 0.0
24/06:00pm 28.6 27.8 15.2 44 8.4 ESE 13 17 7 9 1015.7 1010.9 0.0
24/05:30pm 29.1 28.8 14.5 41 9.1 E 9 13 5 7 1015.8 1011.0 0.0
24/05:00pm 29.7 28.9 13.9 38 9.7 SE 11 15 6 8 1015.7 1010.9 0.0
24/04:30pm 29.9 28.8 14.4 38 9.6 E 13 20 7 11 1015.5 1010.8 0.0
24/04:00pm 30.1 29.5 14.6 39 9.7 E 11 19 6 10 1015.7 1010.9 0.0
24/03:30pm 29.4 28.2 14.0 39 9.5 E 13 20 7 11 1015.7 1010.9 0.0
24/03:00pm 29.2 28.0 15.0 42 8.9 SE 15 22 8 12 1015.8 1011.0 0.0
24/02:30pm 29.6 29.4 15.7 43 8.8 ESE 11 28 6 15 1015.9 1011.1 0.0
24/02:00pm 29.0 27.4 15.9 45 8.3 SE 19 26 10 14 1016.2 1011.4 0.0
24/01:30pm 28.8 29.0 16.7 48 7.8 ESE 11 20 6 11 1016.5 1011.7 0.0

Other Formats:

Comma delimited format used in spreadsheet applications
http://www.bom.gov.au/fwo/IDW60801/IDW60801.99313.axf

JavaScript Object Notation format (JSON) in row-major order
http://www.bom.gov.au/fwo/IDW60801/IDW60801.99313.json